createdAt,value
2023-03-26T00:02:38.716Z,53.73
2023-03-26T00:05:38.738Z,54.04
2023-03-26T00:08:38.640Z,54.23
2023-03-26T00:10:38.695Z,54.16
2023-03-26T00:13:38.759Z,54.29
2023-03-26T00:16:38.686Z,54.22
2023-03-26T00:18:38.680Z,54.37
2023-03-26T00:21:38.755Z,54.32
2023-03-26T00:24:38.710Z,54.37
2023-03-26T00:26:38.680Z,54.26
2023-03-26T00:29:38.655Z,54.46
2023-03-26T00:31:38.692Z,54.47
2023-03-26T00:33:38.737Z,54.25
2023-03-26T00:35:38.778Z,54.85
2023-03-26T00:38:38.797Z,54.5
2023-03-26T00:41:38.702Z,54.23
2023-03-26T00:44:38.654Z,54.22
2023-03-26T00:46:38.711Z,54.25
2023-03-26T00:49:38.695Z,54.28
2023-03-26T00:52:38.632Z,54.35
2023-03-26T00:54:38.671Z,54.16
2023-03-26T00:57:38.708Z,54.12
2023-03-26T00:59:38.653Z,53.8
2023-03-26T01:02:38.711Z,54.04
2023-03-26T01:05:38.698Z,53.91
2023-03-26T01:08:38.725Z,53.89
2023-03-26T01:10:39.889Z,53.93
2023-03-26T01:12:40.092Z,53.98
2023-03-26T01:15:38.686Z,53.89
2023-03-26T01:18:38.636Z,54.38
2023-03-26T01:20:38.674Z,54.21
2023-03-26T01:22:49.076Z,54.25
2023-03-26T01:25:38.738Z,54.13
2023-03-26T01:28:38.664Z,54.21
2023-03-26T01:30:38.714Z,54.26
2023-03-26T01:33:38.769Z,54.08
2023-03-26T01:38:38.996Z,54.03
2023-03-26T01:41:38.677Z,54.04
2023-03-26T01:44:38.734Z,54.11
2023-03-26T01:46:38.756Z,54.29
2023-03-26T01:48:38.790Z,54.12
2023-03-26T01:51:38.638Z,54.24
2023-03-26T01:53:38.730Z,54.05
2023-03-26T01:56:38.669Z,54.1
2023-03-26T01:58:38.662Z,54.15
2023-03-26T02:01:38.846Z,54.28
2023-03-26T02:04:42.929Z,54.2
2023-03-26T02:06:38.739Z,53.91
2023-03-26T02:09:38.732Z,53.92
2023-03-26T02:12:38.714Z,54.02
2023-03-26T02:14:38.845Z,53.97
2023-03-26T02:17:38.705Z,54.6
2023-03-26T02:20:38.754Z,54.48
2023-03-26T02:23:38.688Z,54.52
2023-03-26T02:26:38.683Z,54.53
2023-03-26T02:28:38.722Z,54.73
2023-03-26T02:31:38.755Z,54.75
2023-03-26T02:34:38.816Z,54.9
2023-03-26T02:36:38.760Z,54.69
2023-03-26T02:38:38.718Z,54.91
2023-03-26T02:41:38.684Z,55.26
2023-03-26T02:43:38.693Z,55.04
2023-03-26T02:46:38.665Z,55.08
2023-03-26T02:48:38.704Z,55.33
2023-03-26T02:51:38.718Z,54.99
2023-03-26T02:54:38.655Z,54.9
2023-03-26T02:56:38.787Z,55.05
2023-03-26T02:59:38.816Z,55.05
2023-03-26T03:02:38.975Z,55.35
2023-03-26T03:05:38.706Z,55
2023-03-26T03:08:38.710Z,54.83
2023-03-26T03:11:38.668Z,54.93
2023-03-26T03:13:38.697Z,54.87
2023-03-26T03:16:38.740Z,54.44
2023-03-26T03:19:38.679Z,54.67
2023-03-26T03:22:38.696Z,54.85
2023-03-26T03:25:38.677Z,54.8
2023-03-26T03:27:39.279Z,54.74
2023-03-26T03:30:38.678Z,54.84
2023-03-26T03:33:38.711Z,55.16
2023-03-26T03:35:38.746Z,55.06
2023-03-26T03:38:38.699Z,55.13
2023-03-26T03:41:38.693Z,55.47
2023-03-26T03:43:38.720Z,55.53
2023-03-26T03:46:38.692Z,55.47
2023-03-26T03:49:38.691Z,55.31
2023-03-26T03:51:38.687Z,55.79
2023-03-26T03:54:38.764Z,55.79
2023-03-26T03:57:38.677Z,55.49
2023-03-26T03:59:38.716Z,55.48
2023-03-26T04:02:38.779Z,55.22
2023-03-26T04:05:38.672Z,55.42
2023-03-26T04:07:38.684Z,55.37
2023-03-26T04:10:38.709Z,55.14
2023-03-26T04:12:38.685Z,55.07
2023-03-26T04:14:38.660Z,55.25
2023-03-26T04:17:38.663Z,55.23
2023-03-26T04:19:38.718Z,55.35
2023-03-26T04:22:38.727Z,55.39
2023-03-26T04:24:38.727Z,55.46
2023-03-26T04:27:38.666Z,55.9
2023-03-26T04:29:38.718Z,55.49
2023-03-26T04:31:38.704Z,55.5
2023-03-26T04:33:38.711Z,55.43
2023-03-26T04:36:38.649Z,55.29
2023-03-26T04:38:38.718Z,55.29
2023-03-26T04:41:38.661Z,55.15
2023-03-26T04:44:38.745Z,55.11
2023-03-26T04:47:38.664Z,55.19
2023-03-26T04:49:38.690Z,55.6
2023-03-26T04:52:38.729Z,55.37
2023-03-26T04:54:38.839Z,55.38
2023-03-26T04:57:38.736Z,55.68
2023-03-26T05:00:38.692Z,55.73
2023-03-26T05:02:38.733Z,55.88
2023-03-26T05:05:38.676Z,55.94
2023-03-26T05:08:38.645Z,55.79
2023-03-26T05:10:38.762Z,55.87
2023-03-26T05:13:38.724Z,55.67
2023-03-26T05:16:38.694Z,55.35
2023-03-26T05:18:38.691Z,55.37
2023-03-26T05:21:38.716Z,55.36
2023-03-26T05:24:38.721Z,55.56
2023-03-26T05:27:38.740Z,55.59
2023-03-26T05:29:38.828Z,55.82
2023-03-26T05:32:38.735Z,56.25
2023-03-26T05:35:39.030Z,56.21
2023-03-26T05:38:38.683Z,56.28
2023-03-26T05:40:39.154Z,56.41
2023-03-26T05:43:38.697Z,56.48
2023-03-26T05:46:38.706Z,56.69
2023-03-26T05:49:38.682Z,56.67
2023-03-26T05:52:38.701Z,56.56
2023-03-26T05:55:38.677Z,56.61
2023-03-26T05:57:38.696Z,56.7
2023-03-26T06:00:38.702Z,57.68
2023-03-26T06:03:38.745Z,57.61
2023-03-26T06:06:38.732Z,57.64
2023-03-26T06:08:38.658Z,57.46
2023-03-26T06:11:44.925Z,57.03
2023-03-26T06:14:38.683Z,57.19
2023-03-26T06:16:38.705Z,56.96
2023-03-26T06:19:45.602Z,57.28
2023-03-26T06:22:38.652Z,56.93
2023-03-26T06:24:38.774Z,57.01
2023-03-26T06:27:38.773Z,56.95
2023-03-26T06:30:38.681Z,57.49
2023-03-26T06:33:38.683Z,57.75
2023-03-26T06:35:38.700Z,57.67
2023-03-26T06:38:38.671Z,58.29
2023-03-26T06:40:38.664Z,57.94
2023-03-26T06:43:07.340Z,58.61
2023-03-26T06:45:38.722Z,58.61
2023-03-26T06:47:38.863Z,57.91
2023-03-26T06:50:38.723Z,57.92
2023-03-26T06:53:38.684Z,59.55
2023-03-26T06:55:38.683Z,60.14
2023-03-26T06:57:38.754Z,60.81
2023-03-26T07:00:38.850Z,60.71
2023-03-26T07:05:38.753Z,61.73
2023-03-26T07:08:38.823Z,61.6
2023-03-26T07:11:38.696Z,61.67
2023-03-26T07:13:38.701Z,61.91
2023-03-26T07:15:38.712Z,62.07
2023-03-26T07:17:38.773Z,62.4
2023-03-26T07:20:57.056Z,62.92
2023-03-26T07:22:38.670Z,63.37
2023-03-26T07:27:38.677Z,64.09
2023-03-26T07:30:43.932Z,63.46
2023-03-26T07:33:48.930Z,62.98
2023-03-26T07:35:48.994Z,63.03
2023-03-26T07:37:59.289Z,62.31
2023-03-26T07:41:48.993Z,61.72
2023-03-26T07:45:09.826Z,61.55
2023-03-26T07:48:14.593Z,60.99
2023-03-26T07:51:29.970Z,61.1
2023-03-26T07:54:05.248Z,60.68
2023-03-26T07:56:48.973Z,60.34
2023-03-26T07:58:48.954Z,60.54
2023-03-26T08:01:38.701Z,60.54
2023-03-26T08:03:38.743Z,60.66
2023-03-26T08:05:38.791Z,60.79
2023-03-26T08:08:38.679Z,60.73
2023-03-26T08:10:38.901Z,60.52
2023-03-26T08:13:38.676Z,60.27
2023-03-26T08:15:38.882Z,60.36
2023-03-26T08:18:38.692Z,60.04
2023-03-26T08:20:38.823Z,60.3
2023-03-26T08:22:48.962Z,60.01
2023-03-26T08:25:59.313Z,60.27
2023-03-26T08:28:48.953Z,60.15
2023-03-26T08:30:49.907Z,60.3
2023-03-26T08:33:38.696Z,60.21
2023-03-26T08:36:38.655Z,60.41
2023-03-26T08:38:38.652Z,60.11
2023-03-26T08:41:38.679Z,60.07
2023-03-26T08:43:49.035Z,60.17
2023-03-26T08:45:49.040Z,59.91
2023-03-26T08:48:38.804Z,60.33
2023-03-26T08:51:38.767Z,60.7
2023-03-26T08:53:38.816Z,60.97
2023-03-26T08:55:48.966Z,60.8
2023-03-26T08:58:38.988Z,60.9
2023-03-26T09:01:38.814Z,60.34
2023-03-26T09:03:38.848Z,60.6
2023-03-26T09:05:48.965Z,61.77
2023-03-26T09:08:53.574Z,61.45
2023-03-26T09:11:59.307Z,62.87
2023-03-26T09:14:02.836Z,62.83
2023-03-26T09:16:48.952Z,62.39
2023-03-26T09:20:42.449Z,62.5
2023-03-26T09:23:38.712Z,62.15
2023-03-26T09:25:49.426Z,61.41
2023-03-26T09:29:38.751Z,62.07
2023-03-26T09:32:38.754Z,62.07
2023-03-26T09:34:38.815Z,62.32
2023-03-26T09:37:56.036Z,62.21
2023-03-26T09:39:38.688Z,63.19
2023-03-26T09:41:38.857Z,63.61
2023-03-26T09:44:38.772Z,62.13
2023-03-26T09:47:38.867Z,62.37
2023-03-26T09:50:49.047Z,62.28
2023-03-26T09:53:48.967Z,61.85
2023-03-26T09:57:38.885Z,61.12
2023-03-26T09:59:38.688Z,63.12
2023-03-26T10:03:49.000Z,63.28
2023-03-26T10:06:38.677Z,62.29
2023-03-26T10:08:38.748Z,62.58
2023-03-26T10:10:38.735Z,62.41
2023-03-26T10:13:38.906Z,63.31
2023-03-26T10:15:38.913Z,63.18
2023-03-26T10:18:38.721Z,63.28
2023-03-26T10:20:48.283Z,63.55
2023-03-26T10:23:38.898Z,62.74
2023-03-26T10:25:48.992Z,63.57
2023-03-26T10:27:59.290Z,63.99
2023-03-26T10:30:49.028Z,64.1
2023-03-26T10:33:11.246Z,63.14
2023-03-26T10:35:48.995Z,65.48
2023-03-26T10:38:38.698Z,65.17
2023-03-26T10:41:38.688Z,64.39
2023-03-26T10:44:38.688Z,63.89
2023-03-26T10:46:59.255Z,64.23
2023-03-26T10:49:49.348Z,61.28
2023-03-26T10:52:38.721Z,61.17
2023-03-26T10:56:38.791Z,59.96
2023-03-26T10:58:49.825Z,59.9
2023-03-26T11:00:59.389Z,59.68
2023-03-26T11:04:09.575Z,58.07
2023-03-26T11:06:49.001Z,58.21
2023-03-26T11:09:38.716Z,57.09
2023-03-26T11:11:38.704Z,56.46
2023-03-26T11:14:38.690Z,58.29
2023-03-26T11:16:38.776Z,53.75
2023-03-26T11:19:38.704Z,52.04
2023-03-26T11:22:38.699Z,52.95
2023-03-26T11:24:38.812Z,51.23
2023-03-26T11:27:38.773Z,50.66
2023-03-26T11:30:38.731Z,49.35
2023-03-26T11:33:38.708Z,49.89
2023-03-26T11:36:38.710Z,48.69
2023-03-26T11:38:39.439Z,47.46
2023-03-26T11:41:38.643Z,46.99
2023-03-26T11:43:38.696Z,47.21
2023-03-26T11:45:38.939Z,46.27
2023-03-26T11:48:38.708Z,47.17
2023-03-26T11:50:38.755Z,47.75
2023-03-26T11:53:38.746Z,46.9
2023-03-26T11:56:38.768Z,46.27
2023-03-26T11:59:45.557Z,46.78
2023-03-26T12:01:38.864Z,46.66
2023-03-26T12:04:38.718Z,46.01
2023-03-26T12:06:38.832Z,46.89
2023-03-26T12:09:38.671Z,43.8
2023-03-26T12:11:38.757Z,42.91
2023-03-26T12:15:38.715Z,42.93
2023-03-26T12:17:38.781Z,42.6
2023-03-26T12:20:48.989Z,42.34
2023-03-26T12:22:49.034Z,41.77
2023-03-26T12:25:38.710Z,42.61
2023-03-26T12:28:38.672Z,40.22
2023-03-26T12:30:49.054Z,43.55
2023-03-26T12:33:38.721Z,40.44
2023-03-26T12:36:01.252Z,42.15
2023-03-26T12:39:16.474Z,38.85
2023-03-26T12:42:36.533Z,37.77
2023-03-26T12:44:45.395Z,37.22
2023-03-26T12:47:15.185Z,36.13
2023-03-26T12:48:49.057Z,36.33
2023-03-26T12:52:38.866Z,37.94
2023-03-26T12:55:38.728Z,34.92
2023-03-26T12:58:39.640Z,34.31
2023-03-26T13:01:38.762Z,38.69
2023-03-26T13:05:38.692Z,34.81
2023-03-26T13:07:48.980Z,37.59
2023-03-26T13:10:38.692Z,34.17
2023-03-26T13:12:38.790Z,35.41
2023-03-26T13:15:38.754Z,36.45
2023-03-26T13:17:49.050Z,35.01
2023-03-26T13:19:48.994Z,35.04
2023-03-26T13:22:38.725Z,34.22
2023-03-26T13:25:38.910Z,37.04
2023-03-26T13:27:38.731Z,35.04
2023-03-26T13:30:38.810Z,35.61
2023-03-26T13:32:49.039Z,35.58
2023-03-26T13:34:49.022Z,36.24
2023-03-26T13:37:38.706Z,37.4
2023-03-26T13:41:38.834Z,37.94
2023-03-26T13:43:59.338Z,37.45
2023-03-26T13:46:02.903Z,38.29
2023-03-26T13:48:48.962Z,36.97
2023-03-26T13:51:21.074Z,38.3
2023-03-26T13:54:48.979Z,39.09
2023-03-26T13:56:49.307Z,37.72
2023-03-26T13:59:09.554Z,38.39
2023-03-26T14:01:59.357Z,38.18
2023-03-26T14:04:38.722Z,38.39
2023-03-26T14:07:38.788Z,39.23
2023-03-26T14:09:38.803Z,39.28
2023-03-26T14:12:05.440Z,39.49
2023-03-26T14:15:09.576Z,39.9
2023-03-26T14:17:12.964Z,40.12
2023-03-26T14:19:50.080Z,40.34
2023-03-26T14:23:09.570Z,41.93
2023-03-26T14:25:49.171Z,40.86
2023-03-26T14:29:10.958Z,41.55
2023-03-26T14:31:13.434Z,40.11
2023-03-26T14:33:49.140Z,40.07
2023-03-26T14:36:49.028Z,40.97
2023-03-26T14:40:38.989Z,41.11
2023-03-26T14:42:38.758Z,41.3
2023-03-26T14:44:49.322Z,41.17
2023-03-26T14:46:50.121Z,41.11
2023-03-26T14:49:09.581Z,41.61
2023-03-26T14:51:49.027Z,41.27
2023-03-26T14:55:38.736Z,41.42
2023-03-26T14:57:38.749Z,41.79
2023-03-26T15:00:38.769Z,43.02
2023-03-26T15:02:49.022Z,42.15
2023-03-26T15:05:38.768Z,42.36
2023-03-26T15:08:00.982Z,42.86
2023-03-26T15:12:12.014Z,43.19
2023-03-26T15:15:00.996Z,43.36
2023-03-26T15:17:49.040Z,43.89
2023-03-26T15:23:38.761Z,44.19
2023-03-26T15:27:38.833Z,44.6
2023-03-26T15:30:00.976Z,44.52
2023-03-26T15:32:48.989Z,45.04
2023-03-26T15:34:49.002Z,45.1
2023-03-26T15:37:38.773Z,45.14
2023-03-26T15:41:38.736Z,45.77
2023-03-26T15:43:39.806Z,45.34
2023-03-26T15:45:49.006Z,45.66
2023-03-26T15:48:38.790Z,45.19
2023-03-26T15:52:38.744Z,45.69
2023-03-26T15:55:38.775Z,45.8
2023-03-26T15:57:59.277Z,45.84
2023-03-26T16:00:49.104Z,45.79
2023-03-26T16:03:38.768Z,45.78
2023-03-26T16:06:01.000Z,45.69
2023-03-26T16:08:49.000Z,46
2023-03-26T16:12:00.566Z,45.86
2023-03-26T16:14:12.238Z,45.64
2023-03-26T16:16:49.027Z,45.43
2023-03-26T16:19:49.082Z,45.23
2023-03-26T16:22:49.019Z,45.1
2023-03-26T16:25:59.297Z,45.12
2023-03-26T16:29:00.295Z,45.23
2023-03-26T16:31:23.723Z,45.12
2023-03-26T16:33:49.017Z,45.06
2023-03-26T16:35:49.046Z,44.72
2023-03-26T16:39:38.764Z,45
2023-03-26T16:42:38.742Z,45.36
2023-03-26T16:44:48.991Z,46.24
2023-03-26T16:46:49.125Z,45.94
2023-03-26T16:49:38.734Z,46.92
2023-03-26T16:51:38.727Z,48.26
2023-03-26T16:54:39.560Z,49.19
2023-03-26T16:57:38.752Z,50.33
2023-03-26T17:00:38.803Z,51.15
2023-03-26T17:03:38.794Z,51.42
2023-03-26T17:05:38.760Z,50.76
2023-03-26T17:08:38.752Z,50.04
2023-03-26T17:11:41.060Z,49.7
2023-03-26T17:14:39.744Z,49.22
2023-03-26T17:17:38.773Z,48.56
2023-03-26T17:20:39.797Z,47.82
2023-03-26T17:22:38.772Z,48.63
2023-03-26T17:25:39.516Z,48.12
2023-03-26T17:28:38.765Z,48.31
2023-03-26T17:30:39.307Z,48.03
2023-03-26T17:33:38.785Z,48.61
2023-03-26T17:36:38.774Z,48.82
2023-03-26T17:39:38.746Z,48.33
2023-03-26T17:41:38.780Z,48.58
2023-03-26T17:43:38.931Z,48.36
2023-03-26T17:46:38.778Z,48.8
2023-03-26T17:48:39.810Z,48.14
2023-03-26T17:51:38.758Z,48.95
2023-03-26T17:53:38.803Z,49.3
2023-03-26T17:56:39.438Z,48.92
2023-03-26T17:58:38.836Z,49.34
2023-03-26T18:04:38.768Z,49.14
2023-03-26T18:07:38.788Z,49.2
2023-03-26T18:10:39.050Z,48.93
2023-03-26T18:12:38.766Z,49.54
2023-03-26T18:15:38.772Z,49.99
2023-03-26T18:17:38.843Z,48.58
2023-03-26T18:20:38.967Z,49.35
2023-03-26T18:23:38.802Z,48.87
2023-03-26T18:25:38.796Z,49.95
2023-03-26T18:27:38.971Z,49.92
2023-03-26T18:30:38.872Z,49.56
2023-03-26T18:32:38.786Z,49.91
2023-03-26T18:34:38.833Z,50.34
2023-03-26T18:36:38.803Z,49.05
2023-03-26T18:38:40.067Z,49.07
2023-03-26T18:41:38.781Z,49.48
2023-03-26T18:44:38.751Z,50.43
2023-03-26T18:47:38.763Z,49.41
2023-03-26T18:49:39.800Z,50.07
2023-03-26T18:52:43.281Z,50.47
2023-03-26T18:55:39.607Z,48.27
2023-03-26T18:58:38.749Z,49.43
2023-03-26T19:00:38.821Z,49.46
2023-03-26T19:02:38.873Z,50.02
2023-03-26T19:05:38.812Z,49.08
2023-03-26T19:07:38.761Z,48.17
2023-03-26T19:10:39.141Z,48.79
2023-03-26T19:13:38.787Z,49.06
2023-03-26T19:15:38.853Z,49.67
2023-03-26T19:17:38.849Z,50.33
2023-03-26T19:20:38.900Z,50.92
2023-03-26T19:24:38.804Z,51.37
2023-03-26T19:27:38.792Z,52
2023-03-26T19:29:38.824Z,51.44
2023-03-26T19:32:38.775Z,51.96
2023-03-26T19:34:38.840Z,51.85
2023-03-26T19:37:38.743Z,52.43
2023-03-26T19:39:38.735Z,52.37
2023-03-26T19:41:39.012Z,52.55
2023-03-26T19:44:38.741Z,52.54
2023-03-26T19:47:50.292Z,52.57
2023-03-26T19:50:38.857Z,52.51
2023-03-26T19:53:38.751Z,52.57
2023-03-26T19:55:38.869Z,52.87
2023-03-26T19:58:38.754Z,52.8
2023-03-26T20:01:38.878Z,53.36
2023-03-26T20:04:38.786Z,53.48
2023-03-26T20:06:43.529Z,53.28
2023-03-26T20:09:38.758Z,53.7
2023-03-26T20:11:39.524Z,53.32
2023-03-26T20:13:38.762Z,54.31
2023-03-26T20:16:38.847Z,55.71
2023-03-26T20:18:38.824Z,55.99
2023-03-26T20:21:39.048Z,55.37
2023-03-26T20:23:38.829Z,54.77
2023-03-26T20:26:38.768Z,54.86
2023-03-26T20:28:42.498Z,54.86
2023-03-26T20:31:38.817Z,55.07
2023-03-26T20:34:38.777Z,55.15
2023-03-26T20:36:39.685Z,55.6
2023-03-26T20:38:39.937Z,56.06
2023-03-26T20:41:39.383Z,55.95
2023-03-26T20:43:38.786Z,56.21
2023-03-26T20:46:38.835Z,56.17
2023-03-26T20:49:38.797Z,56.37
2023-03-26T20:51:38.940Z,56.77
2023-03-26T20:53:38.754Z,56.66
2023-03-26T20:56:39.048Z,56.19
2023-03-26T20:59:38.831Z,56.71
2023-03-26T21:01:39.059Z,56.62
2023-03-26T21:04:38.781Z,56.8
2023-03-26T21:07:39.428Z,57.36
2023-03-26T21:09:38.796Z,56.86
2023-03-26T21:12:38.776Z,56.95
2023-03-26T21:15:38.782Z,56.73
2023-03-26T21:17:39.564Z,56.78
2023-03-26T21:20:38.799Z,56.73
2023-03-26T21:23:39.160Z,56.57
2023-03-26T21:26:41.543Z,56.83
2023-03-26T21:28:42.145Z,56.68
2023-03-26T21:31:38.951Z,56.63
2023-03-26T21:34:42.041Z,56.48
2023-03-26T21:36:38.877Z,56.33
2023-03-26T21:39:40.289Z,56.3
2023-03-26T21:41:38.827Z,56.38
2023-03-26T21:44:39.000Z,56.59
2023-03-26T21:47:38.800Z,56.96
2023-03-26T21:53:38.755Z,57.48
2023-03-26T21:56:38.826Z,56.86
2023-03-26T21:59:38.754Z,57.4
2023-03-26T22:01:38.812Z,56.91
2023-03-26T22:03:38.797Z,57.12
2023-03-26T22:05:38.797Z,56.24
2023-03-26T22:08:38.765Z,56.77
2023-03-26T22:10:38.771Z,56.96
2023-03-26T22:12:38.807Z,56.92
2023-03-26T22:14:38.847Z,56.58
2023-03-26T22:16:38.809Z,56.99
2023-03-26T22:19:38.814Z,57.01
2023-03-26T22:22:38.827Z,56.7
2023-03-26T22:24:38.836Z,56.81
2023-03-26T22:27:43.713Z,56.35
2023-03-26T22:29:39.810Z,56.15
2023-03-26T22:31:38.861Z,56.04
2023-03-26T22:34:38.810Z,56.49
2023-03-26T22:37:38.780Z,56.27
2023-03-26T22:39:38.795Z,55.61
2023-03-26T22:41:38.798Z,55.76
2023-03-26T22:43:38.786Z,55.56
2023-03-26T22:46:38.777Z,55.52
2023-03-26T22:48:38.783Z,55.37
2023-03-26T22:51:38.793Z,55.56
2023-03-26T22:54:38.796Z,56.07
2023-03-26T22:56:38.788Z,55.45
2023-03-26T22:59:38.810Z,55.78
2023-03-26T23:02:38.822Z,55.64
2023-03-26T23:05:38.765Z,55.41
2023-03-26T23:07:38.810Z,55.68
2023-03-26T23:09:38.845Z,56.47
2023-03-26T23:12:38.752Z,56.22
2023-03-26T23:14:38.768Z,55.68
2023-03-26T23:16:38.866Z,55.7
2023-03-26T23:18:38.825Z,55.9
2023-03-26T23:20:38.851Z,55.69
2023-03-26T23:23:38.784Z,55.6
2023-03-26T23:25:38.787Z,55.68
2023-03-26T23:28:38.809Z,55.97
2023-03-26T23:30:38.831Z,56.54
2023-03-26T23:33:38.800Z,56.07
2023-03-26T23:36:38.767Z,56.32
2023-03-26T23:39:38.809Z,56.2
2023-03-26T23:41:38.822Z,56.43
2023-03-26T23:44:38.914Z,56.23
2023-03-26T23:47:38.829Z,56.41
2023-03-26T23:49:38.857Z,56.6
2023-03-26T23:52:38.818Z,56.14
2023-03-26T23:55:38.811Z,56.18
2023-03-26T23:57:38.852Z,55.64
2023-03-26T23:59:38.820Z,55.16
